createdAt,value
2022-08-03T00:01:24.769Z,3.65
2022-08-03T00:03:51.776Z,4.05
2022-08-03T00:06:18.820Z,3.80
2022-08-03T00:08:45.823Z,4.18
2022-08-03T00:11:12.856Z,3.28
2022-08-03T00:13:39.851Z,2.97
2022-08-03T00:16:06.869Z,3.70
2022-08-03T00:18:33.877Z,3.50
2022-08-03T00:21:00.896Z,4.65
2022-08-03T00:23:33.130Z,2.97
2022-08-03T00:26:14.870Z,4.18
2022-08-03T00:28:41.870Z,3.35
2022-08-03T00:31:08.874Z,3.50
2022-08-03T00:33:58.441Z,4.20
2022-08-03T00:36:27.025Z,3.97
2022-08-03T00:38:54.038Z,4.07
2022-08-03T00:41:21.025Z,3.40
2022-08-03T00:43:48.075Z,3.60
2022-08-03T00:46:19.217Z,3.20
2022-08-03T00:48:48.503Z,3.47
2022-08-03T00:51:15.527Z,3.38
2022-08-03T00:53:42.510Z,3.20
2022-08-03T00:56:09.531Z,3.80
2022-08-03T00:58:36.527Z,3.75
2022-08-03T01:01:03.581Z,3.70
2022-08-03T01:03:30.616Z,4.20
2022-08-03T01:05:57.618Z,3.90
2022-08-03T01:08:24.608Z,3.85
2022-08-03T01:10:51.633Z,3.70
2022-08-03T01:13:59.170Z,3.17
2022-08-03T01:16:05.610Z,4.15
2022-08-03T01:18:32.601Z,3.42
2022-08-03T01:20:59.614Z,3.15
2022-08-03T01:23:28.937Z,3.40
2022-08-03T01:25:56.145Z,4.35
2022-08-03T01:28:23.142Z,3.47
2022-08-03T01:30:50.157Z,3.97
2022-08-03T01:33:17.161Z,3.38
2022-08-03T01:35:44.160Z,5.20
2022-08-03T01:38:11.257Z,3.55
2022-08-03T01:40:38.300Z,4.57
2022-08-03T01:43:05.287Z,3.35
2022-08-03T01:45:34.131Z,5.10
2022-08-03T01:48:01.420Z,4.30
2022-08-03T01:50:28.402Z,4.57
2022-08-03T01:52:55.422Z,4.40
2022-08-03T01:55:22.407Z,4.53
2022-08-03T01:58:04.765Z,4.53
2022-08-03T02:00:33.372Z,4.70
2022-08-03T02:03:00.384Z,5.25
2022-08-03T02:05:27.385Z,5.50
2022-08-03T02:07:54.406Z,5.38
2022-08-03T02:10:34.599Z,6.38
2022-08-03T02:13:02.719Z,6.07
2022-08-03T02:15:29.718Z,7.00
2022-08-03T02:17:56.731Z,5.80
2022-08-03T02:20:23.724Z,7.57
2022-08-03T02:22:50.744Z,8.20
2022-08-03T02:25:17.735Z,7.97
2022-08-03T02:27:44.740Z,7.68
2022-08-03T02:30:11.738Z,7.88
2022-08-03T02:32:38.737Z,7.75
2022-08-03T02:35:05.730Z,7.97
2022-08-03T02:37:32.740Z,7.80
2022-08-03T02:39:59.740Z,8.65
2022-08-03T02:42:26.747Z,8.57
2022-08-03T02:44:53.760Z,9.38
2022-08-03T02:47:20.768Z,9.57
2022-08-03T02:49:51.649Z,9.20
2022-08-03T02:52:19.239Z,9.40
2022-08-03T02:54:46.435Z,9.50
2022-08-03T02:57:13.425Z,10.65
2022-08-03T02:59:40.455Z,9.05
2022-08-03T03:02:07.438Z,9.50
2022-08-03T03:04:34.443Z,9.85
2022-08-03T03:07:01.768Z,10.18
2022-08-03T03:09:40.267Z,9.38
2022-08-03T03:12:08.548Z,9.48
2022-08-03T03:14:35.555Z,8.80
2022-08-03T03:17:02.550Z,8.57
2022-08-03T03:19:29.554Z,9.82
2022-08-03T03:21:56.539Z,9.63
2022-08-03T03:24:23.537Z,8.52
2022-08-03T03:26:50.538Z,7.72
2022-08-03T03:29:17.547Z,8.32
2022-08-03T03:31:44.573Z,7.80
2022-08-03T03:34:11.574Z,7.68
2022-08-03T03:36:38.557Z,8.45
2022-08-03T03:39:15.541Z,8.07
2022-08-03T03:41:43.137Z,8.00
2022-08-03T03:44:10.164Z,8.55
2022-08-03T03:46:37.157Z,9.25
2022-08-03T03:49:04.226Z,8.32
2022-08-03T03:51:31.282Z,7.78
2022-08-03T03:53:58.308Z,7.97
2022-08-03T03:56:25.304Z,7.88
2022-08-03T03:58:52.306Z,8.07
2022-08-03T04:01:19.339Z,8.20
2022-08-03T04:03:46.402Z,8.40
2022-08-03T04:06:13.385Z,8.05
2022-08-03T04:08:40.397Z,8.27
2022-08-03T04:11:09.153Z,7.38
2022-08-03T04:13:36.159Z,7.78
2022-08-03T04:16:03.153Z,6.65
2022-08-03T04:18:30.176Z,7.45
2022-08-03T04:20:57.356Z,6.97
2022-08-03T04:23:24.362Z,7.85
2022-08-03T04:25:51.361Z,7.60
2022-08-03T04:28:29.484Z,7.13
2022-08-03T04:30:58.475Z,6.53
2022-08-03T04:33:25.469Z,6.65
2022-08-03T04:36:01.473Z,6.38
2022-08-03T04:38:30.083Z,6.82
2022-08-03T04:40:57.066Z,6.85
2022-08-03T04:43:24.072Z,6.10
2022-08-03T04:45:51.078Z,6.45
2022-08-03T04:48:18.079Z,5.82
2022-08-03T04:50:45.102Z,6.10
2022-08-03T04:53:12.105Z,6.57
2022-08-03T04:55:39.934Z,5.85
2022-08-03T04:58:06.927Z,6.97
2022-08-03T05:00:33.940Z,7.63
2022-08-03T05:03:00.942Z,6.53
2022-08-03T05:05:47.434Z,6.50
2022-08-03T05:08:14.924Z,6.70
2022-08-03T05:10:41.935Z,6.40
2022-08-03T05:13:08.923Z,6.03
2022-08-03T05:15:35.962Z,6.50
2022-08-03T05:18:13.872Z,6.20
2022-08-03T05:20:41.294Z,6.63
2022-08-03T05:23:08.321Z,6.38
2022-08-03T05:25:35.332Z,6.22
2022-08-03T05:28:02.318Z,6.85
2022-08-03T05:30:34.009Z,5.78
2022-08-03T05:33:01.507Z,6.50
2022-08-03T05:36:01.011Z,7.15
2022-08-03T05:38:15.502Z,6.78
2022-08-03T05:40:56.998Z,6.60
2022-08-03T05:43:24.720Z,6.25
2022-08-03T05:46:12.363Z,6.88
2022-08-03T05:48:38.705Z,6.32
2022-08-03T05:51:05.705Z,6.95
2022-08-03T05:53:32.691Z,6.32
2022-08-03T05:56:03.618Z,6.80
2022-08-03T05:58:41.799Z,6.35
2022-08-03T06:01:08.889Z,7.05
2022-08-03T06:03:35.944Z,6.25
2022-08-03T06:06:02.964Z,6.70
2022-08-03T06:08:29.953Z,7.38
2022-08-03T06:10:56.980Z,6.60
2022-08-03T06:13:23.976Z,6.70
2022-08-03T06:15:50.984Z,6.47
2022-08-03T06:18:17.985Z,6.80
2022-08-03T06:20:44.993Z,6.60
2022-08-03T06:23:16.164Z,5.75
2022-08-03T06:25:44.951Z,5.93
2022-08-03T06:28:19.150Z,5.28
2022-08-03T06:30:55.975Z,5.53
2022-08-03T06:33:48.235Z,5.85
2022-08-03T06:36:12.173Z,5.57
2022-08-03T06:38:39.200Z,5.32
2022-08-03T06:41:06.213Z,5.10
2022-08-03T06:43:35.716Z,5.18
2022-08-03T06:46:03.017Z,4.30
2022-08-03T06:48:30.018Z,3.92
2022-08-03T06:50:57.031Z,4.30
2022-08-03T06:53:24.026Z,4.05
2022-08-03T06:55:54.416Z,3.80
2022-08-03T06:58:22.183Z,3.58
2022-08-03T07:00:49.205Z,3.72
2022-08-03T07:03:16.205Z,3.25
2022-08-03T07:05:43.215Z,2.97
2022-08-03T07:08:10.205Z,3.13
2022-08-03T07:10:37.220Z,3.15
2022-08-03T07:13:04.224Z,2.83
2022-08-03T07:15:54.631Z,3.17
2022-08-03T07:18:28.863Z,2.92
2022-08-03T07:20:56.754Z,3.15
2022-08-03T07:23:23.747Z,2.95
2022-08-03T07:25:50.787Z,2.70
2022-08-03T07:28:17.818Z,2.47
2022-08-03T07:30:44.849Z,2.45
2022-08-03T07:33:11.845Z,2.38
2022-08-03T07:35:38.853Z,2.53
2022-08-03T07:38:05.866Z,2.85
2022-08-03T07:40:32.891Z,3.05
2022-08-03T07:42:59.900Z,2.78
2022-08-03T07:45:27.061Z,2.92
2022-08-03T07:47:54.417Z,2.80
2022-08-03T07:50:21.654Z,2.92
2022-08-03T07:52:48.705Z,2.95
2022-08-03T07:55:15.722Z,2.70
2022-08-03T07:57:42.717Z,3.45
2022-08-03T08:00:09.738Z,2.90
2022-08-03T08:02:36.741Z,2.85
2022-08-03T08:05:05.944Z,2.95
2022-08-03T08:07:33.188Z,2.70
2022-08-03T08:10:00.263Z,2.45
2022-08-03T08:12:27.284Z,2.75
2022-08-03T08:14:54.287Z,2.60
2022-08-03T08:17:21.305Z,2.40
2022-08-03T08:19:51.371Z,2.65
2022-08-03T08:22:19.159Z,2.30
2022-08-03T08:24:53.577Z,2.10
2022-08-03T08:27:22.292Z,2.00
2022-08-03T08:29:54.261Z,1.80
2022-08-03T08:32:23.446Z,1.77
2022-08-03T08:34:50.466Z,1.77
2022-08-03T08:37:17.468Z,2.78
2022-08-03T08:39:44.476Z,1.88
2022-08-03T08:42:11.470Z,1.60
2022-08-03T08:44:38.486Z,1.83
2022-08-03T08:47:05.486Z,1.50
2022-08-03T08:49:32.574Z,1.40
2022-08-03T08:52:00.792Z,1.70
2022-08-03T08:54:28.488Z,1.65
2022-08-03T08:56:55.488Z,2.00
2022-08-03T08:59:22.504Z,1.55
2022-08-03T09:01:49.495Z,1.27
2022-08-03T09:04:16.510Z,1.70
2022-08-03T09:06:58.696Z,1.65
2022-08-03T09:10:10.745Z,1.70
2022-08-03T09:12:40.653Z,1.33
2022-08-03T09:15:16.420Z,1.60
2022-08-03T09:17:47.681Z,1.25
2022-08-03T09:20:17.481Z,1.30
2022-08-03T09:22:44.489Z,1.20
2022-08-03T09:25:26.875Z,1.20
2022-08-03T09:27:53.959Z,1.20
2022-08-03T09:30:34.215Z,1.50
2022-08-03T09:33:02.071Z,1.30
2022-08-03T09:35:51.760Z,1.08
2022-08-03T09:38:16.094Z,1.20
2022-08-03T09:40:43.108Z,1.40
2022-08-03T09:43:10.125Z,1.20
2022-08-03T09:45:37.128Z,1.40
2022-08-03T09:48:04.135Z,1.30
2022-08-03T09:50:31.160Z,1.40
2022-08-03T09:52:58.161Z,1.17
2022-08-03T09:56:33.965Z,2.00
2022-08-03T09:58:12.163Z,1.40
2022-08-03T10:00:39.274Z,1.35
2022-08-03T10:03:06.396Z,1.27
2022-08-03T10:05:33.536Z,1.35
2022-08-03T10:08:00.550Z,1.23
2022-08-03T10:10:29.013Z,1.20
2022-08-03T10:12:58.907Z,1.48
2022-08-03T10:16:21.520Z,1.40
2022-08-03T10:18:12.888Z,1.20
2022-08-03T10:20:39.897Z,1.48
2022-08-03T10:23:06.971Z,1.38
2022-08-03T10:25:35.281Z,1.50
2022-08-03T10:28:02.284Z,1.10
2022-08-03T10:30:29.304Z,1.10
2022-08-03T10:32:57.037Z,1.10
2022-08-03T10:35:24.131Z,1.50
2022-08-03T10:37:56.965Z,1.17
2022-08-03T10:40:47.669Z,0.90
2022-08-03T10:43:12.731Z,0.98
2022-08-03T10:45:39.765Z,0.90
2022-08-03T10:48:06.774Z,1.10
2022-08-03T10:50:33.805Z,1.67
2022-08-03T10:53:02.068Z,1.15
2022-08-03T10:55:31.014Z,1.10
2022-08-03T10:57:59.190Z,0.80
2022-08-03T11:00:26.356Z,1.15
2022-08-03T11:02:53.446Z,1.15
2022-08-03T11:05:20.441Z,0.90
2022-08-03T11:07:48.080Z,1.17
2022-08-03T11:10:21.730Z,1.15
2022-08-03T11:12:48.746Z,1.00
2022-08-03T11:15:15.749Z,1.23
2022-08-03T11:17:46.612Z,1.20
2022-08-03T11:20:22.731Z,1.58
2022-08-03T11:22:49.757Z,1.25
2022-08-03T11:25:54.318Z,1.20
2022-08-03T11:28:03.783Z,0.90
2022-08-03T11:30:31.930Z,1.00
2022-08-03T11:32:58.939Z,0.98
2022-08-03T11:35:25.942Z,1.40
2022-08-03T11:38:01.422Z,1.02
2022-08-03T11:40:30.646Z,1.10
2022-08-03T11:42:57.667Z,1.05
2022-08-03T11:45:24.690Z,1.10
2022-08-03T11:47:51.725Z,1.02
2022-08-03T11:50:18.770Z,1.35
2022-08-03T11:52:45.770Z,1.13
2022-08-03T11:55:12.787Z,1.77
2022-08-03T11:59:15.142Z,2.05
2022-08-03T12:00:26.794Z,1.27
2022-08-03T12:02:53.834Z,1.60
2022-08-03T12:05:20.893Z,1.15
2022-08-03T12:08:03.113Z,1.02
2022-08-03T12:10:33.077Z,1.50
2022-08-03T12:13:00.074Z,1.60
2022-08-03T12:15:27.103Z,1.27
2022-08-03T12:17:57.732Z,1.23
2022-08-03T12:20:34.946Z,1.52
2022-08-03T12:23:02.109Z,1.98
2022-08-03T12:25:39.213Z,1.90
2022-08-03T12:28:06.728Z,1.70
2022-08-03T12:30:54.919Z,1.20
2022-08-03T12:33:22.062Z,1.33
2022-08-03T12:35:52.461Z,1.40
2022-08-03T12:38:20.495Z,1.10
2022-08-03T12:40:47.519Z,1.55
2022-08-03T12:43:14.516Z,1.40
2022-08-03T12:45:41.532Z,1.13
2022-08-03T12:48:08.548Z,1.48
2022-08-03T12:50:35.579Z,1.35
2022-08-03T12:53:02.603Z,1.40
2022-08-03T12:55:29.628Z,1.30
2022-08-03T12:58:18.999Z,1.30
2022-08-03T13:00:46.194Z,1.05
2022-08-03T13:03:42.316Z,1.27
2022-08-03T13:06:01.384Z,1.80
2022-08-03T13:08:28.392Z,1.10
2022-08-03T13:10:55.387Z,1.13
2022-08-03T13:13:22.450Z,1.00
2022-08-03T13:15:49.467Z,0.98
2022-08-03T13:18:17.222Z,1.38
2022-08-03T13:20:44.601Z,1.40
2022-08-03T13:23:21.999Z,1.00
2022-08-03T13:25:55.877Z,1.10
2022-08-03T13:28:23.192Z,1.20
2022-08-03T13:30:50.205Z,1.10
2022-08-03T13:33:17.223Z,1.10
2022-08-03T13:35:44.247Z,0.88
2022-08-03T13:38:11.502Z,1.08
2022-08-03T13:40:41.789Z,1.70
2022-08-03T13:43:08.979Z,1.70
2022-08-03T13:45:35.995Z,1.50
2022-08-03T13:48:03.017Z,1.10
2022-08-03T13:50:30.012Z,1.27
2022-08-03T13:52:57.050Z,1.20
2022-08-03T13:55:24.070Z,1.20
2022-08-03T13:58:02.210Z,1.10
2022-08-03T14:00:33.921Z,1.50
2022-08-03T14:03:16.430Z,1.25
2022-08-03T14:05:43.517Z,1.20
2022-08-03T14:08:10.581Z,1.08
2022-08-03T14:10:37.575Z,1.20
2022-08-03T14:13:04.586Z,1.17
2022-08-03T14:15:31.587Z,1.08
2022-08-03T14:17:58.975Z,1.10
2022-08-03T14:20:36.713Z,1.15
2022-08-03T14:23:06.048Z,0.85
2022-08-03T14:25:44.250Z,2.28
2022-08-03T14:28:17.742Z,1.38
2022-08-03T14:30:44.744Z,1.35
2022-08-03T14:33:11.761Z,1.30
2022-08-03T14:35:38.759Z,1.63
2022-08-03T14:38:05.761Z,1.20
2022-08-03T14:40:32.778Z,1.25
2022-08-03T14:42:59.811Z,1.33
2022-08-03T14:45:26.825Z,1.23
2022-08-03T14:50:28.955Z,1.30
2022-08-03T14:50:44.370Z,1.02
2022-08-03T14:53:12.630Z,1.00
2022-08-03T14:55:50.670Z,1.17
2022-08-03T14:58:19.625Z,1.20
2022-08-03T15:00:48.347Z,1.23
2022-08-03T15:03:16.637Z,1.27
2022-08-03T15:05:44.356Z,1.40
2022-08-03T15:08:11.354Z,1.48
2022-08-03T15:10:43.731Z,1.20
2022-08-03T15:13:11.721Z,1.43
2022-08-03T15:15:38.712Z,1.85
2022-08-03T15:18:05.722Z,1.10
2022-08-03T15:20:43.965Z,1.55
2022-08-03T15:23:11.775Z,1.52
2022-08-03T15:26:02.301Z,1.52
2022-08-03T15:28:25.773Z,1.48
2022-08-03T15:30:52.799Z,1.90
2022-08-03T15:33:19.817Z,1.77
2022-08-03T15:35:46.828Z,1.50
2022-08-03T15:38:13.825Z,1.80
2022-08-03T15:40:40.860Z,1.60
2022-08-03T15:43:07.894Z,1.50
2022-08-03T15:45:36.125Z,1.20
2022-08-03T15:48:03.760Z,1.83
2022-08-03T15:50:30.773Z,1.80
2022-08-03T15:52:57.777Z,2.40
2022-08-03T15:55:24.795Z,1.80
2022-08-03T15:59:03.203Z,2.08
2022-08-03T16:00:38.799Z,2.03
2022-08-03T16:03:05.818Z,1.95
2022-08-03T16:05:32.830Z,2.20
2022-08-03T16:08:03.894Z,1.60
2022-08-03T16:10:32.081Z,1.70
2022-08-03T16:12:59.087Z,1.77
2022-08-03T16:15:26.091Z,1.63
2022-08-03T16:17:53.082Z,2.10
2022-08-03T16:20:31.463Z,1.50
2022-08-03T16:23:11.008Z,1.70
2022-08-03T16:25:38.796Z,1.40
2022-08-03T16:28:08.047Z,1.50
2022-08-03T16:30:39.712Z,1.40
2022-08-03T16:33:06.734Z,1.50
2022-08-03T16:35:33.761Z,1.50
2022-08-03T16:38:00.773Z,1.50
2022-08-03T16:40:27.796Z,1.40
2022-08-03T16:42:54.795Z,1.35
2022-08-03T16:45:21.812Z,1.20
2022-08-03T16:47:49.054Z,1.30
2022-08-03T16:50:32.076Z,1.20
2022-08-03T16:52:59.082Z,1.40
2022-08-03T16:55:48.750Z,1.38
2022-08-03T16:58:13.115Z,1.15
2022-08-03T17:00:41.856Z,1.88
2022-08-03T17:03:18.618Z,1.30
2022-08-03T17:05:49.606Z,1.45
2022-08-03T17:08:26.915Z,1.38
2022-08-03T17:10:54.434Z,1.60
2022-08-03T17:13:22.762Z,1.30
2022-08-03T17:16:00.908Z,1.35
2022-08-03T17:18:28.655Z,1.30
2022-08-03T17:20:55.667Z,1.80
2022-08-03T17:23:34.788Z,1.00
2022-08-03T17:26:04.806Z,1.00
2022-08-03T17:28:48.176Z,1.13
2022-08-03T17:31:23.087Z,1.52
2022-08-03T17:33:58.064Z,1.42
2022-08-03T17:36:47.508Z,1.75
2022-08-03T17:39:14.529Z,1.80
2022-08-03T17:41:49.124Z,1.55
2022-08-03T17:44:32.014Z,1.60
2022-08-03T17:47:04.428Z,1.80
2022-08-03T17:49:35.130Z,1.40
2022-08-03T17:52:07.270Z,2.63
2022-08-03T17:54:37.079Z,1.70
2022-08-03T17:57:27.207Z,1.95
2022-08-03T17:59:54.489Z,1.77
2022-08-03T18:02:30.368Z,2.00
2022-08-03T18:05:00.496Z,1.90
2022-08-03T18:07:40.896Z,1.77
2022-08-03T18:10:11.521Z,2.05
2022-08-03T18:12:42.346Z,1.60
2022-08-03T18:15:20.939Z,1.70
2022-08-03T18:17:55.696Z,2.03
2022-08-03T18:20:33.188Z,1.95
2022-08-03T18:23:07.776Z,2.45
2022-08-03T18:25:43.123Z,1.85
2022-08-03T18:28:18.822Z,2.10
2022-08-03T18:30:53.697Z,1.80
2022-08-03T18:34:19.210Z,1.73
2022-08-03T18:36:09.068Z,2.13
2022-08-03T18:38:36.306Z,2.33
2022-08-03T18:41:06.053Z,2.25
2022-08-03T18:43:46.656Z,2.17
2022-08-03T18:46:14.831Z,1.67
2022-08-03T18:48:46.181Z,1.85
2022-08-03T18:51:28.898Z,1.90
2022-08-03T18:54:01.836Z,1.88
2022-08-03T18:56:31.215Z,2.70
2022-08-03T18:59:02.408Z,2.00
2022-08-03T19:02:00.881Z,2.28
2022-08-03T19:04:16.880Z,2.25
2022-08-03T19:06:44.165Z,2.15
2022-08-03T19:09:11.186Z,1.85
2022-08-03T19:12:13.982Z,2.00
2022-08-03T19:14:28.681Z,2.17
2022-08-03T19:16:56.364Z,1.75
2022-08-03T19:19:24.675Z,2.58
2022-08-03T19:21:51.784Z,2.13
2022-08-03T19:24:18.775Z,2.22
2022-08-03T19:26:48.534Z,2.25
2022-08-03T19:29:19.217Z,2.50
2022-08-03T19:31:58.762Z,2.42
2022-08-03T19:34:26.844Z,3.00
2022-08-03T19:36:54.626Z,2.50
2022-08-03T19:39:21.643Z,2.88
2022-08-03T19:41:51.361Z,3.30
2022-08-03T19:44:19.847Z,2.50
2022-08-03T19:46:47.349Z,1.60
2022-08-03T19:49:15.321Z,1.85
2022-08-03T19:52:00.594Z,2.10
2022-08-03T19:54:32.204Z,2.08
2022-08-03T19:56:59.390Z,2.13
2022-08-03T19:59:26.553Z,1.85
2022-08-03T20:01:53.579Z,2.47
2022-08-03T20:04:21.802Z,2.20
2022-08-03T20:06:49.626Z,2.45
2022-08-03T20:09:16.772Z,2.38
2022-08-03T20:11:45.165Z,1.90
2022-08-03T20:14:20.540Z,2.28
2022-08-03T20:16:53.136Z,2.00
2022-08-03T20:19:20.246Z,2.40
2022-08-03T20:21:47.285Z,2.20
2022-08-03T20:24:23.762Z,2.83
2022-08-03T20:26:52.500Z,2.30
2022-08-03T20:29:20.421Z,2.20
2022-08-03T20:32:07.679Z,2.20
2022-08-03T20:34:37.303Z,1.90
2022-08-03T20:37:04.589Z,2.45
2022-08-03T20:39:31.630Z,2.10
2022-08-03T20:41:58.667Z,2.05
2022-08-03T20:44:26.109Z,2.30
2022-08-03T20:47:00.247Z,2.10
2022-08-03T20:49:27.833Z,2.65
2022-08-03T20:51:54.831Z,2.20
2022-08-03T20:54:29.017Z,2.22
2022-08-03T20:56:57.431Z,2.30
2022-08-03T20:59:25.021Z,2.28
2022-08-03T21:01:52.042Z,2.00
2022-08-03T21:04:21.812Z,2.00
2022-08-03T21:06:53.218Z,2.35
2022-08-03T21:09:20.589Z,1.80
2022-08-03T21:11:49.302Z,1.98
2022-08-03T21:14:17.423Z,1.80
2022-08-03T21:16:44.452Z,1.80
2022-08-03T21:19:11.465Z,1.70
2022-08-03T21:21:38.483Z,1.33
2022-08-03T21:24:05.507Z,1.67
2022-08-03T21:26:32.504Z,1.95
2022-08-03T21:28:59.534Z,2.00
2022-08-03T21:31:27.081Z,1.90
2022-08-03T21:33:54.193Z,1.98
2022-08-03T21:36:21.253Z,1.83
2022-08-03T21:38:56.374Z,2.22
2022-08-03T21:41:23.973Z,1.90
2022-08-03T21:43:50.999Z,1.92
2022-08-03T21:46:18.029Z,1.80
2022-08-03T21:48:45.038Z,1.90
2022-08-03T21:51:12.068Z,1.70
2022-08-03T21:54:00.385Z,2.22
2022-08-03T21:56:26.063Z,1.90
2022-08-03T21:58:53.915Z,2.65
2022-08-03T22:01:20.972Z,2.20
2022-08-03T22:03:53.071Z,2.30
2022-08-03T22:06:21.236Z,2.53
2022-08-03T22:08:49.461Z,1.92
2022-08-03T22:11:16.521Z,2.20
2022-08-03T22:13:44.671Z,2.10
2022-08-03T22:16:11.790Z,2.05
2022-08-03T22:18:38.786Z,2.30
2022-08-03T22:21:05.788Z,2.05
2022-08-03T22:23:32.786Z,2.15
2022-08-03T22:25:59.804Z,2.35
2022-08-03T22:28:26.808Z,1.98
2022-08-03T22:30:53.838Z,1.80
2022-08-03T22:33:20.830Z,2.38
2022-08-03T22:35:48.491Z,2.40
2022-08-03T22:38:15.524Z,2.28
2022-08-03T22:40:42.557Z,2.15
2022-08-03T22:43:09.568Z,2.17
2022-08-03T22:46:07.892Z,1.90
2022-08-03T22:48:23.554Z,2.58
2022-08-03T22:50:50.561Z,3.17
2022-08-03T22:53:17.554Z,2.10
2022-08-03T22:55:44.555Z,2.00
2022-08-03T22:58:11.555Z,2.60
2022-08-03T23:00:38.608Z,2.00
2022-08-03T23:03:05.640Z,2.00
2022-08-03T23:06:00.990Z,2.38
2022-08-03T23:08:19.673Z,2.20
2022-08-03T23:10:47.326Z,2.30
2022-08-03T23:13:14.463Z,2.20
2022-08-03T23:15:41.487Z,2.50
2022-08-03T23:18:08.499Z,2.03
2022-08-03T23:20:35.518Z,2.10
2022-08-03T23:23:03.869Z,1.90
2022-08-03T23:25:31.939Z,2.30
2022-08-03T23:28:05.407Z,1.70
2022-08-03T23:30:33.049Z,1.77
2022-08-03T23:33:00.071Z,1.65
2022-08-03T23:36:29.421Z,2.10
2022-08-03T23:38:22.859Z,2.10
2022-08-03T23:40:51.199Z,1.70
2022-08-03T23:43:19.246Z,1.92
2022-08-03T23:46:05.468Z,1.83
2022-08-03T23:48:32.466Z,2.28
2022-08-03T23:50:59.478Z,1.85
2022-08-03T23:53:26.471Z,3.03
2022-08-03T23:55:53.473Z,2.20
2022-08-03T23:58:20.456Z,2.33
